North College Hill, Ohio
Current Conditions -  °F | °C
As of 5:53 AM on Friday 28 Nov 2014 (Local Time) from KHAO Reporting Station
Overcast Overcast  
Wind Chill: 26°   Ceiling: 3500
Heat Index: 26°   Visibility: 10mi
Dew Point: 17°   Wind: 0mph
Humidity: 69%   Direction: NA
Pressure: 30.41"   Gusts: NA
Location:  39.246°N, 84.538°W
Report Text: KHAO 281053Z AUTO 00000KT 10SM FEW023 OVC035 M03/M08 A3041 RMK AO2 SLP306 T10331083
Loading
Personal Weather Stations






























Interactive Weather Map New forecast layout! Learn more

10-Day Weather Forecast

Advertisements
Track Severe Weather on mobile